createdAt,value
2022-10-02T00:03:53.237Z,12.37
2022-10-02T00:09:03.337Z,12.39
2022-10-02T00:14:10.515Z,12.40
2022-10-02T00:19:15.384Z,12.35
2022-10-02T00:24:26.888Z,12.32
2022-10-02T00:29:39.886Z,12.29
2022-10-02T00:35:15.424Z,12.28
2022-10-02T00:40:39.475Z,12.26
2022-10-02T00:46:02.548Z,12.22
2022-10-02T00:51:04.046Z,12.18
2022-10-02T00:56:27.861Z,12.17
2022-10-02T01:01:41.376Z,12.16
2022-10-02T01:06:42.878Z,12.15
2022-10-02T01:11:44.979Z,12.12
2022-10-02T01:16:46.951Z,12.11
2022-10-02T01:21:58.001Z,12.09
2022-10-02T01:26:59.501Z,12.04
2022-10-02T01:32:01.209Z,12.05
2022-10-02T01:37:03.374Z,12.01
2022-10-02T01:42:04.911Z,11.97
2022-10-02T01:47:10.672Z,11.90
2022-10-02T01:52:21.215Z,11.83
2022-10-02T01:57:52.670Z,11.90
2022-10-02T02:03:15.487Z,11.97
2022-10-02T02:08:37.337Z,11.97
2022-10-02T02:13:48.065Z,11.89
2022-10-02T02:19:26.138Z,11.84
2022-10-02T02:24:42.313Z,11.75
2022-10-02T02:29:48.140Z,11.72
2022-10-02T02:34:54.222Z,11.66
2022-10-02T02:40:00.447Z,11.67
2022-10-02T02:45:12.650Z,11.67
2022-10-02T02:50:40.634Z,11.59
2022-10-02T02:55:53.107Z,11.50
2022-10-02T03:00:55.095Z,11.52
2022-10-02T03:06:17.244Z,11.68
2022-10-02T03:11:27.729Z,11.79
2022-10-02T03:17:00.152Z,11.81
2022-10-02T03:22:15.749Z,11.88
2022-10-02T03:27:37.189Z,11.89
2022-10-02T03:32:41.437Z,11.83
2022-10-02T03:37:47.567Z,11.79
2022-10-02T03:42:49.068Z,11.76
2022-10-02T03:47:50.558Z,11.75
2022-10-02T03:52:53.568Z,11.76
2022-10-02T03:57:56.218Z,11.73
2022-10-02T04:03:05.716Z,11.66
2022-10-02T04:08:33.349Z,11.59
2022-10-02T04:14:07.052Z,11.54
2022-10-02T04:19:26.886Z,11.52
2022-10-02T04:24:42.749Z,11.46
2022-10-02T04:29:51.977Z,11.46
2022-10-02T04:34:54.510Z,11.45
2022-10-02T04:40:07.963Z,11.48
2022-10-02T04:45:46.200Z,11.45
2022-10-02T04:51:04.719Z,11.45
2022-10-02T04:56:29.409Z,11.47
2022-10-02T05:01:49.278Z,11.40
2022-10-02T05:07:02.828Z,11.34
2022-10-02T05:12:07.120Z,11.28
2022-10-02T05:17:30.398Z,11.30
2022-10-02T05:22:50.524Z,11.29
2022-10-02T05:28:28.097Z,11.35
2022-10-02T05:33:32.999Z,11.36
2022-10-02T05:39:04.513Z,11.36
2022-10-02T05:44:26.468Z,11.37
2022-10-02T05:49:34.958Z,11.41
2022-10-02T05:54:57.880Z,11.49
2022-10-02T06:00:35.952Z,11.53
2022-10-02T06:05:40.189Z,11.53
2022-10-02T06:10:46.369Z,11.57
2022-10-02T06:16:02.759Z,11.61
2022-10-02T06:21:14.755Z,11.63
2022-10-02T06:26:28.189Z,11.64
2022-10-02T06:32:07.987Z,11.66
2022-10-02T06:37:34.205Z,11.89
2022-10-02T06:43:05.356Z,12.06
2022-10-02T06:48:30.321Z,12.12
2022-10-02T06:53:46.001Z,12.14
2022-10-02T06:59:11.702Z,12.20
2022-10-02T07:04:32.192Z,12.42
2022-10-02T07:09:50.307Z,12.64
2022-10-02T07:15:03.624Z,12.70
2022-10-02T07:20:17.162Z,12.80
2022-10-02T07:25:45.818Z,13.03
2022-10-02T07:31:24.659Z,13.20
2022-10-02T07:36:32.260Z,13.31
2022-10-02T07:41:58.535Z,13.36
2022-10-02T07:47:15.489Z,13.33
2022-10-02T07:52:47.747Z,13.32
2022-10-02T07:58:09.462Z,13.37
2022-10-02T08:03:22.715Z,13.39
2022-10-02T08:08:41.729Z,13.47
2022-10-02T08:13:48.647Z,13.56
2022-10-02T08:18:56.928Z,13.70
2022-10-02T08:24:01.174Z,13.86
2022-10-02T08:29:26.258Z,14.00
2022-10-02T08:34:28.019Z,14.10
2022-10-02T08:39:48.093Z,14.28
2022-10-02T08:45:15.269Z,14.45
2022-10-02T08:50:44.341Z,14.59
2022-10-02T08:56:03.367Z,14.76
2022-10-02T09:01:18.770Z,14.91
2022-10-02T09:06:22.947Z,15.09
2022-10-02T09:11:31.508Z,15.37
2022-10-02T09:16:47.560Z,15.71
2022-10-02T09:21:56.120Z,15.96
2022-10-02T09:27:27.318Z,16.26
2022-10-02T09:32:52.012Z,16.23
2022-10-02T09:38:21.159Z,15.98
2022-10-02T09:44:03.503Z,15.86
2022-10-02T09:49:42.398Z,15.87
2022-10-02T09:55:12.969Z,16.12
2022-10-02T10:00:20.611Z,16.15
2022-10-02T10:05:43.735Z,16.21
2022-10-02T10:11:29.283Z,16.43
2022-10-02T10:16:53.943Z,16.51
2022-10-02T10:22:14.028Z,16.42
2022-10-02T10:27:33.666Z,16.34
2022-10-02T10:33:06.161Z,16.41
2022-10-02T10:38:35.485Z,16.62
2022-10-02T10:43:55.004Z,16.75
2022-10-02T10:49:30.544Z,16.76
2022-10-02T10:54:52.963Z,16.56
2022-10-02T11:00:19.414Z,16.41
2022-10-02T11:05:58.080Z,16.18
2022-10-02T11:11:23.101Z,16.15
2022-10-02T11:16:47.276Z,16.38
2022-10-02T11:22:07.231Z,16.55
2022-10-02T11:27:22.739Z,16.59
2022-10-02T11:32:59.164Z,16.57
2022-10-02T11:38:29.542Z,16.52
2022-10-02T11:43:40.518Z,16.59
2022-10-02T11:48:59.440Z,16.74
2022-10-02T11:54:24.987Z,16.94
2022-10-02T11:59:51.221Z,17.13
2022-10-02T12:05:21.729Z,17.26
2022-10-02T12:10:37.166Z,17.41
2022-10-02T12:16:06.130Z,17.26
2022-10-02T12:21:35.651Z,16.99
2022-10-02T12:27:09.715Z,16.62
2022-10-02T12:32:37.504Z,16.41
2022-10-02T12:37:45.238Z,16.49
2022-10-02T12:42:49.278Z,16.50
2022-10-02T12:48:10.433Z,16.22
2022-10-02T12:53:17.552Z,16.06
2022-10-02T12:58:31.575Z,16.02
2022-10-02T13:03:48.311Z,16.00
2022-10-02T13:09:19.052Z,15.83
2022-10-02T13:14:35.663Z,15.94
2022-10-02T13:19:57.350Z,15.76
2022-10-02T13:25:22.472Z,15.86
2022-10-02T13:30:24.166Z,15.67
2022-10-02T13:35:37.051Z,15.70
2022-10-02T13:41:16.902Z,15.76
2022-10-02T13:46:45.750Z,15.79
2022-10-02T13:51:55.990Z,15.81
2022-10-02T13:57:31.782Z,15.76
2022-10-02T14:02:45.224Z,15.79
2022-10-02T14:08:01.866Z,15.86
2022-10-02T14:13:23.220Z,15.75
2022-10-02T14:18:49.150Z,15.64
2022-10-02T14:24:11.735Z,15.61
2022-10-02T14:29:29.033Z,15.55
2022-10-02T14:34:42.537Z,15.64
2022-10-02T14:39:45.611Z,15.62
2022-10-02T14:45:08.139Z,15.64
2022-10-02T14:50:35.186Z,15.45
2022-10-02T14:55:55.294Z,15.57
2022-10-02T15:01:58.185Z,15.48
2022-10-02T15:07:12.118Z,15.42
2022-10-02T15:12:24.168Z,15.17
2022-10-02T15:17:55.391Z,15.15
2022-10-02T15:22:58.850Z,15.15
2022-10-02T15:28:34.593Z,14.98
2022-10-02T15:34:01.738Z,14.85
2022-10-02T15:39:13.836Z,14.71
2022-10-02T15:44:34.390Z,14.55
2022-10-02T15:50:13.328Z,14.38
2022-10-02T15:55:34.445Z,14.35
2022-10-02T16:01:03.724Z,14.35
2022-10-02T16:06:18.678Z,14.31
2022-10-02T16:11:32.250Z,14.29
2022-10-02T16:16:36.896Z,14.37
2022-10-02T16:21:53.781Z,14.49
2022-10-02T16:27:17.958Z,14.56
2022-10-02T16:33:01.205Z,14.58
2022-10-02T16:38:30.850Z,14.59
2022-10-02T16:43:54.226Z,14.57
2022-10-02T16:49:16.420Z,14.54
2022-10-02T16:54:37.047Z,14.46
2022-10-02T17:00:16.902Z,14.31
2022-10-02T17:05:47.370Z,14.21
2022-10-02T17:11:16.641Z,14.13
2022-10-02T17:16:32.784Z,14.01
2022-10-02T17:21:37.001Z,13.89
2022-10-02T17:26:50.047Z,13.76
2022-10-02T17:31:57.661Z,13.65
2022-10-02T17:37:27.282Z,13.57
2022-10-02T17:42:47.789Z,13.49
2022-10-02T17:47:58.204Z,13.48
2022-10-02T17:53:36.951Z,13.51
2022-10-02T17:58:39.379Z,13.45
2022-10-02T18:04:00.931Z,13.34
2022-10-02T18:09:19.958Z,13.21
2022-10-02T18:14:30.978Z,13.06
2022-10-02T18:19:56.141Z,13.00
2022-10-02T18:25:32.762Z,12.93
2022-10-02T18:30:54.012Z,12.81
2022-10-02T18:36:14.530Z,12.69
2022-10-02T18:41:22.312Z,12.57
2022-10-02T18:46:43.939Z,12.45
2022-10-02T18:51:45.373Z,12.38
2022-10-02T18:57:08.363Z,12.32
2022-10-02T19:02:23.854Z,12.22
2022-10-02T19:07:35.420Z,12.25
2022-10-02T19:12:43.648Z,12.24
2022-10-02T19:17:59.010Z,12.13
2022-10-02T19:23:00.978Z,11.99
2022-10-02T19:28:03.965Z,11.91
2022-10-02T19:33:12.362Z,11.87
2022-10-02T19:38:13.767Z,11.84
2022-10-02T19:43:28.231Z,11.74
2022-10-02T19:48:32.317Z,11.68
2022-10-02T19:53:40.631Z,11.68
2022-10-02T19:58:49.203Z,11.64
2022-10-02T20:03:56.738Z,11.55
2022-10-02T20:09:01.084Z,11.48
2022-10-02T20:14:16.867Z,11.43
2022-10-02T20:19:25.642Z,11.41
2022-10-02T20:24:35.574Z,11.41
2022-10-02T20:29:45.964Z,11.39
2022-10-02T20:34:57.680Z,11.30
2022-10-02T20:40:18.325Z,11.25
2022-10-02T20:45:23.297Z,11.16
2022-10-02T20:50:45.234Z,11.12
2022-10-02T20:56:04.619Z,11.15
2022-10-02T21:01:32.662Z,11.16
2022-10-02T21:06:40.393Z,11.13
2022-10-02T21:12:18.303Z,11.07
2022-10-02T21:18:02.457Z,11.01
2022-10-02T21:23:14.789Z,10.96
2022-10-02T21:28:41.284Z,10.90
2022-10-02T21:33:48.620Z,10.80
2022-10-02T21:39:24.154Z,10.76
2022-10-02T21:44:36.727Z,10.73
2022-10-02T21:49:53.277Z,10.67
2022-10-02T21:55:16.502Z,10.58
2022-10-02T22:00:28.766Z,10.50
2022-10-02T22:06:01.689Z,10.44
2022-10-02T22:11:14.967Z,10.38
2022-10-02T22:16:40.257Z,10.34
2022-10-02T22:21:57.785Z,10.29
2022-10-02T22:27:26.435Z,10.27
2022-10-02T22:33:08.585Z,10.22
2022-10-02T22:38:12.633Z,10.18
2022-10-02T22:43:56.119Z,10.13
2022-10-02T22:49:06.522Z,10.09
2022-10-02T22:54:25.052Z,10.03
2022-10-02T22:59:38.916Z,9.98
2022-10-02T23:05:02.069Z,9.92
2022-10-02T23:10:09.263Z,9.91
2022-10-02T23:15:26.027Z,9.86
2022-10-02T23:20:39.547Z,9.82
2022-10-02T23:26:11.311Z,9.74
2022-10-02T23:31:23.003Z,9.72
2022-10-02T23:36:31.942Z,9.74
2022-10-02T23:41:46.956Z,9.73
2022-10-02T23:46:51.332Z,9.78
2022-10-02T23:52:19.405Z,9.77
2022-10-02T23:57:45.586Z,9.75
